• Join FlightAware (Why Join?)
  • Login
  • US Flag 
04:43PM EST


 

Airport Tracker/Info


-or-


 

Live Flight TrackerFlight Track Log ✈ UAL590 ✈ 26-May-2012 ✈ KORD - KBDL

Flight Track Log - Related Links

Times and Time Zones

All times are in EDT time to prevent confusion due to time zone crossing. See the UAL590 flight status page for this flight to view local times or setup timezone preferences in your user account.

Time Position Orientation Groundspeed Altitude Reporting Facility
EDT Latitude Longitude Course Direction KTS MPH feet Rate Location/Type
02:40PM 42.0166 -87.6668 263° West  Level FlightAware Approximate
02:40PM 42.0000 -87.8500 80° East 162 186 2,500  Level Chicago TRACON
02:45PM 42.0642 -87.3444 77° East 329 379 14,600 2,580 Climbing Chicago Center
02:46PM 42.0906 -87.1953 78° East 359 413 18,000 2,820 Climbing Chicago Center
02:47PM 42.1128 -87.0575 86° East 359 413 20,400 1,740 Climbing Chicago Center
02:48PM 42.1203 -86.9058 87° East 377 434 21,500 1,440 Climbing Chicago Center
02:49PM 42.1269 -86.7433 88° East 413 475 23,300 1,800 Climbing Chicago Center
02:50PM 42.1314 -86.5722 86° East 442 509 25,200 1,740 Climbing Chicago Center
02:51PM 42.1397 -86.4011 88° East 455 524 26,900 1,680 Climbing Chicago Center
02:52PM 42.1433 -86.2272 88° East 460 529 28,600 1,620 Climbing Chicago Center
02:53PM 42.1472 -86.0675 92° East 460 529 30,200 1,560 Climbing Chicago Center
02:54PM 42.1422 -85.8969 90° East 460 529 31,800 1,800 Climbing Chicago Center
02:55PM 42.1411 -85.7261 91° East 460 529 33,900 1,560 Climbing Chicago Center
02:56PM 42.1397 -85.5525 90° East 460 529 35,000 1,080 Climbing Chicago Center
02:58PM 42.1397 -85.2631 92° East 488 562 36,800 720 Climbing Cleveland Center
02:59PM 42.1361 -85.0919 91° East 469 540 37,000 60 Climbing Cleveland Center
03:00PM 42.1342 -84.9236 91° East 456 525 37,000  Level Cleveland Center
03:01PM 42.1322 -84.7528 84° East 456 525 37,000  Level Cleveland Center
03:02PM 42.1447 -84.5797 84° East 451 519 37,000  Level Cleveland Center
03:03PM 42.1589 -84.4097 85° East 456 525 37,000  Level Cleveland Center
03:04PM 42.1708 -84.2367 84° East 463 533 37,000 -60 Level Cleveland Center
03:05PM 42.1844 -84.0664 83° East 457 526 36,900 -60 Descending Cleveland Center
03:06PM 42.2000 -83.8936 85° East 457 526 36,900  Level Cleveland Center
03:07PM 42.2103 -83.7456 84° East 457 526 36,900  Level Cleveland Center
03:08PM 42.2258 -83.5556 84° East 457 526 37,000  Climbing Cleveland Center
03:09PM 42.2383 -83.3878 85° East 463 533 37,000  Level Cleveland Center
03:10PM 42.2508 -83.2089 84° East 466 536 37,000  Level Cleveland Center
03:11PM 42.2653 -83.0356 85° East 466 536 37,000  Level Cleveland Center
03:12PM 42.2769 -82.8647 85° East 459 528 37,000  Level Cleveland Center
03:13PM 42.2886 -82.6911 84° East 459 528 37,000 -60 Level Cleveland Center
03:14PM 42.2997 -82.5397 85° East 459 528 36,900 -60 Descending Cleveland Center
03:15PM 42.3108 -82.3717 86° East 459 528 36,900 -240 Level Cleveland Center
03:16PM 42.3197 -82.2006 83° East 454 522 36,500 -720 Descending Cleveland Center
03:17PM 42.3367 -82.0158 86° East 454 522 35,500 -780 Descending Cleveland Center
03:18PM 42.3450 -81.8417 85° East 462 532 35,000 -540 Descending Cleveland Center
03:19PM 42.3572 -81.6678 86° East 462 532 34,500 -780 Descending Cleveland Center
03:20PM 42.3669 -81.4908 86° East 462 532 33,500 -780 Descending Cleveland Center
03:21PM 42.3767 -81.3139 85° East 457 526 33,000 -300 Descending Cleveland Center
03:22PM 42.3881 -81.1397 86° East 464 534 33,000  Level Cleveland Center
03:23PM 42.3969 -80.9656 87° East 464 534 33,000  Level Cleveland Center
03:24PM 42.4036 -80.8081 85° East 464 534 33,000  Level Cleveland Center
03:25PM 42.4144 -80.6281 85° East 464 534 33,000  Level Cleveland Center
03:26PM 42.4247 -80.4511 86° East 464 534 33,000  Level Cleveland Center
03:27PM 42.4328 -80.2736 87° East 464 534 33,000  Level Cleveland Center
03:28PM 42.4406 -80.0964 86° East 469 540 33,000  Level Cleveland Center
03:29PM 42.4500 -79.9164 87° East 469 540 33,000  Level Cleveland Center
03:30PM 42.4572 -79.7361 86° East 475 547 33,000  Level Cleveland Center
03:31PM 42.4661 -79.5503 87° East 493 567 33,100  Climbing Cleveland Center
03:32PM 42.4725 -79.3475 87° East 498 573 33,000 -60 Descending Cleveland Center
03:33PM 42.4786 -79.1672 87° East 482 555 33,000  Level Cleveland Center
03:34PM 42.4867 -78.9839 87° East 481 554 33,000  Level Cleveland Center
03:35PM 42.4928 -78.8375 88° East 486 559 33,000  Level Cleveland Center
03:36PM 42.4981 -78.6344 86° East 486 559 33,000  Level Cleveland Center
03:37PM 42.5072 -78.4483 88° East 487 560 33,100  Climbing Cleveland Center
03:38PM 42.5122 -78.2706 87° East 482 555 33,000 -60 Descending Cleveland Center
03:39PM 42.5189 -78.0928 88° East 477 549 33,000  Level Cleveland Center
03:40PM 42.5231 -77.9067 89° East 477 549 33,000  Level Cleveland Center
03:41PM 42.5250 -77.7264 87° East 476 548 33,000  Level Cleveland Center
03:42PM 42.5308 -77.5458 88° East 476 548 33,000  Level Cleveland Center
03:44PM 42.5381 -77.2058 88° East 475 547 33,000  Level Boston Center
03:45PM 42.5433 -77.0231 89° East 475 547 33,000  Level Boston Center
03:46PM 42.5444 -76.8425 88° East 475 547 33,000  Level Boston Center
03:47PM 42.5492 -76.6569 89° East 480 552 33,000  Level Boston Center
03:48PM 42.5517 -76.4739 89° East 480 552 33,000 -480 Level Boston Center
03:49PM 42.5539 -76.2933 88° East 475 547 32,100 -960 Descending Boston Center
03:50PM 42.5581 -76.1075 90° East 480 552 31,100 -1,020 Descending Boston Center
03:51PM 42.5575 -75.9272 99° East 480 552 30,100 -1,140 Descending Boston Center
03:52PM 42.5342 -75.7256 101° East 485 558 28,900 -1,140 Descending Boston Center
03:53PM 42.5100 -75.5497 101° East 485 558 27,900 -1,020 Descending Boston Center
03:54PM 42.4856 -75.3739 98° East 474 545 26,900 -960 Descending Boston Center
03:55PM 42.4669 -75.2014 88° East 469 540 26,000 -960 Descending Boston Center
03:56PM 42.4708 -75.0297 89° East 469 540 25,000 -1,020 Descending Boston Center
03:57PM 42.4725 -74.8608 87° East 458 527 24,000 -1,020 Descending Boston Center
03:58PM 42.4781 -74.6978 88° East 448 516 23,000 -1,020 Descending Boston Center
03:59PM 42.4811 -74.5375 90° East 435 501 22,000 -1,020 Descending Boston Center
04:00PM 42.4819 -74.3714 89° East 435 501 21,000 -1,020 Descending Boston Center
04:01PM 42.4844 -74.2108 100° East 435 501 20,000 -1,200 Descending Boston Center
04:02PM 42.4639 -74.0528 105° East 430 495 18,700 -1,200 Descending Boston Center
04:03PM 42.4367 -73.9169 105° East 417 480 17,600 -1,260 Descending Boston Center
04:04PM 42.4053 -73.7589 105° East 406 467 16,200 -1,320 Descending Boston Center
04:05PM 42.3794 -73.6317 105° East 401 461 15,000 -1,320 Descending Boston Center
04:06PM 42.3478 -73.4767 105° East 395 455 13,600 -1,320 Descending Boston Center
04:07PM 42.3197 -73.3331 105° East 390 449 12,400 -1,320 Descending Boston Center
04:08PM 42.2936 -73.2008 96° East 377 434 11,000 -1,140 Descending Boston Center
04:09PM 42.2839 -73.0772 88° East 358 412 10,200 -1,140 Descending Boston Center
04:10PM 42.2867 -72.9536 87° East 327 376 8,800 -1,500 Descending Boston Center
04:11PM 42.2914 -72.8386 108° East 314 361 7,300 -1,500 Descending Boston Center
04:12PM 42.2606 -72.7094 138° Southeast 296 341 5,500 -1,080 Descending Boston Center
04:13PM 42.2231 -72.6644 146° Southeast 273 314 5,200 -780 Descending Boston Center
04:14PM 42.1586 -72.6053 142° Southeast 209 241 4,000 -1,080 Descending Boston Center
04:15PM 42.1272 -72.5717 157° South 214 246 3,100 -840 Descending Boston Center
04:16PM 42.0731 -72.5408 196° South 203 234 2,500 -420 Descending Boston Center
04:16PM 42.0439 -72.5519 223° Southwest 195 224 2,500 -480 Level Boston Center
04:17PM 42.0147 -72.5881 223° Southwest 177 204 1,900 -780 Descending Boston Center